Terminal Aerodrome Forecast
Issued by NWS La Crosse, WI

Home | Current Version | Previous Version | Text Only | Print | Product List | Glossary On
Versions: 1 2 3 4 5 6 7 8 9 10 11 12 13 14 15 16 17 18 19 20 21 22 23 24 25 26 27 28 29 30 31 32 33 34
000
FTUS43 KARX 290536
TAFLSE
TAF
KLSE 290536Z 2906/3006 01005KT P6SM OVC015
     FM290800 35005KT 2SM -DZ BR OVC009
     FM291000 33010KT 4SM -DZ BR OVC008
     FM291200 32018G26KT P6SM OVC010
     FM291800 32020G28KT P6SM OVC012
     FM300000 32013KT P6SM OVC022=

USA.gov is the U.S. government's official web portal to all federal, state and local government web resources and services.